METAR Data
IDs: Format: Raw Decoded Include TAF

Data at: 0241 UTC 29 Nov 2020

METAR for:KAIO (Atlantic Muni, IA, US)
Text:KAIO 290235Z AUTO 21004KT 10SM CLR 01/01 A2999 RMK AO2
Temperature: 1.0°C ( 34°F)
Dewpoint: 1.0°C ( 34°F) [RH = 100%]
Pressure (altimeter):29.99 inches Hg (1015.7 mb)
Winds:from the SSW (210 degrees) at 5 MPH (4 knots; 2.1 m/s)
Visibility:10 or more sm (16+ km)
Ceiling:at least 12,000 feet AGL
Clouds:sky clear below 12,000 feet AGL
QC Flag:automated observation with no human augmentation